sensor_id;sensor_type;location;lat;lon;timestamp;P1;durP1;ratioP1;P2;durP2;ratioP2
4464;SDS011;2245;48.136;13.428;2022-08-27T00:01:11;21.47;;;12.10;;
4464;SDS011;2245;48.136;13.428;2022-08-27T00:03:40;18.17;;;12.30;;
4464;SDS011;2245;48.136;13.428;2022-08-27T00:06:07;15.30;;;11.70;;
4464;SDS011;2245;48.136;13.428;2022-08-27T00:08:34;17.37;;;12.47;;
4464;SDS011;2245;48.136;13.428;2022-08-27T00:11:03;18.63;;;11.50;;
4464;SDS011;2245;48.136;13.428;2022-08-27T00:13:29;19.13;;;11.97;;
4464;SDS011;2245;48.136;13.428;2022-08-27T00:15:56;15.63;;;12.10;;
4464;SDS011;2245;48.136;13.428;2022-08-27T00:18:23;14.23;;;11.03;;
4464;SDS011;2245;48.136;13.428;2022-08-27T00:20:51;16.67;;;12.17;;
4464;SDS011;2245;48.136;13.428;2022-08-27T00:23:17;16.00;;;11.33;;
4464;SDS011;2245;48.136;13.428;2022-08-27T00:25:44;14.90;;;10.97;;
4464;SDS011;2245;48.136;13.428;2022-08-27T00:28:12;19.33;;;12.10;;
4464;SDS011;2245;48.136;13.428;2022-08-27T00:30:39;19.00;;;11.70;;
4464;SDS011;2245;48.136;13.428;2022-08-27T00:33:06;19.47;;;12.13;;
4464;SDS011;2245;48.136;13.428;2022-08-27T00:35:33;16.60;;;11.77;;
4464;SDS011;2245;48.136;13.428;2022-08-27T00:38:00;19.10;;;13.63;;
4464;SDS011;2245;48.136;13.428;2022-08-27T00:40:27;20.83;;;12.73;;
4464;SDS011;2245;48.136;13.428;2022-08-27T00:42:54;19.10;;;12.67;;
4464;SDS011;2245;48.136;13.428;2022-08-27T00:45:23;17.30;;;13.00;;
4464;SDS011;2245;48.136;13.428;2022-08-27T00:47:51;18.53;;;11.83;;
4464;SDS011;2245;48.136;13.428;2022-08-27T00:50:22;22.33;;;12.10;;
4464;SDS011;2245;48.136;13.428;2022-08-27T00:52:54;15.10;;;11.43;;
4464;SDS011;2245;48.136;13.428;2022-08-27T00:55:24;17.50;;;11.43;;
4464;SDS011;2245;48.136;13.428;2022-08-27T00:57:54;16.43;;;11.90;;
4464;SDS011;2245;48.136;13.428;2022-08-27T01:00:27;15.40;;;11.30;;
4464;SDS011;2245;48.136;13.428;2022-08-27T01:02:54;20.87;;;12.50;;
4464;SDS011;2245;48.136;13.428;2022-08-27T01:05:21;30.37;;;12.80;;
4464;SDS011;2245;48.136;13.428;2022-08-27T01:07:50;21.70;;;12.57;;
4464;SDS011;2245;48.136;13.428;2022-08-27T01:10:22;24.57;;;12.17;;
4464;SDS011;2245;48.136;13.428;2022-08-27T01:12:51;26.80;;;14.53;;
4464;SDS011;2245;48.136;13.428;2022-08-27T01:15:19;17.10;;;11.80;;
4464;SDS011;2245;48.136;13.428;2022-08-27T01:17:47;26.00;;;12.47;;
4464;SDS011;2245;48.136;13.428;2022-08-27T01:20:16;17.00;;;12.43;;
4464;SDS011;2245;48.136;13.428;2022-08-27T01:22:49;33.87;;;13.40;;
4464;SDS011;2245;48.136;13.428;2022-08-27T01:25:22;19.37;;;13.60;;
4464;SDS011;2245;48.136;13.428;2022-08-27T01:27:50;21.40;;;12.20;;
4464;SDS011;2245;48.136;13.428;2022-08-27T01:30:19;20.40;;;11.20;;
4464;SDS011;2245;48.136;13.428;2022-08-27T01:32:47;15.40;;;11.93;;
4464;SDS011;2245;48.136;13.428;2022-08-27T01:35:15;30.63;;;12.60;;
4464;SDS011;2245;48.136;13.428;2022-08-27T01:37:43;17.03;;;12.60;;
4464;SDS011;2245;48.136;13.428;2022-08-27T01:40:11;22.63;;;13.40;;
4464;SDS011;2245;48.136;13.428;2022-08-27T01:42:40;16.67;;;13.30;;
4464;SDS011;2245;48.136;13.428;2022-08-27T01:45:10;22.63;;;12.87;;
4464;SDS011;2245;48.136;13.428;2022-08-27T01:47:38;20.30;;;13.23;;
4464;SDS011;2245;48.136;13.428;2022-08-27T01:50:06;16.93;;;11.70;;
4464;SDS011;2245;48.136;13.428;2022-08-27T01:52:36;17.33;;;11.20;;
4464;SDS011;2245;48.136;13.428;2022-08-27T01:55:03;22.10;;;13.70;;
4464;SDS011;2245;48.136;13.428;2022-08-27T01:57:30;17.13;;;11.83;;
4464;SDS011;2245;48.136;13.428;2022-08-27T02:00:00;18.27;;;12.60;;
4464;SDS011;2245;48.136;13.428;2022-08-27T02:02:27;18.97;;;13.73;;
4464;SDS011;2245;48.136;13.428;2022-08-27T02:04:54;16.43;;;13.20;;
4464;SDS011;2245;48.136;13.428;2022-08-27T02:07:21;18.40;;;13.43;;
4464;SDS011;2245;48.136;13.428;2022-08-27T02:09:48;31.03;;;16.10;;
4464;SDS011;2245;48.136;13.428;2022-08-27T02:12:15;20.60;;;13.00;;
4464;SDS011;2245;48.136;13.428;2022-08-27T02:14:42;14.77;;;11.73;;
4464;SDS011;2245;48.136;13.428;2022-08-27T02:17:10;17.40;;;12.00;;
4464;SDS011;2245;48.136;13.428;2022-08-27T02:19:37;17.40;;;12.57;;
4464;SDS011;2245;48.136;13.428;2022-08-27T02:22:04;16.97;;;13.03;;
4464;SDS011;2245;48.136;13.428;2022-08-27T02:24:31;18.83;;;14.27;;
4464;SDS011;2245;48.136;13.428;2022-08-27T02:26:58;25.83;;;14.37;;
4464;SDS011;2245;48.136;13.428;2022-08-27T02:29:24;17.23;;;11.97;;
4464;SDS011;2245;48.136;13.428;2022-08-27T02:31:51;15.47;;;12.00;;
4464;SDS011;2245;48.136;13.428;2022-08-27T02:34:19;15.00;;;11.77;;
4464;SDS011;2245;48.136;13.428;2022-08-27T02:36:47;14.70;;;11.67;;
4464;SDS011;2245;48.136;13.428;2022-08-27T02:39:14;21.53;;;10.80;;
4464;SDS011;2245;48.136;13.428;2022-08-27T02:41:41;19.53;;;11.47;;
4464;SDS011;2245;48.136;13.428;2022-08-27T02:44:07;18.87;;;12.13;;
4464;SDS011;2245;48.136;13.428;2022-08-27T02:46:35;18.67;;;11.77;;
4464;SDS011;2245;48.136;13.428;2022-08-27T02:49:02;18.33;;;12.13;;
4464;SDS011;2245;48.136;13.428;2022-08-27T02:51:30;15.70;;;10.57;;
4464;SDS011;2245;48.136;13.428;2022-08-27T02:53:57;13.83;;;10.70;;
4464;SDS011;2245;48.136;13.428;2022-08-27T02:56:24;17.37;;;10.60;;
4464;SDS011;2245;48.136;13.428;2022-08-27T02:58:51;14.47;;;9.83;;
4464;SDS011;2245;48.136;13.428;2022-08-27T03:01:18;14.03;;;10.50;;
4464;SDS011;2245;48.136;13.428;2022-08-27T03:03:46;19.53;;;11.53;;
4464;SDS011;2245;48.136;13.428;2022-08-27T03:06:13;18.07;;;11.53;;
4464;SDS011;2245;48.136;13.428;2022-08-27T03:08:41;16.63;;;11.60;;
4464;SDS011;2245;48.136;13.428;2022-08-27T03:11:08;14.60;;;11.73;;
4464;SDS011;2245;48.136;13.428;2022-08-27T03:13:35;14.90;;;11.20;;
4464;SDS011;2245;48.136;13.428;2022-08-27T03:16:03;15.03;;;11.93;;
4464;SDS011;2245;48.136;13.428;2022-08-27T03:18:30;17.63;;;13.10;;
4464;SDS011;2245;48.136;13.428;2022-08-27T03:20:57;22.53;;;12.60;;
4464;SDS011;2245;48.136;13.428;2022-08-27T03:23:25;16.37;;;12.57;;
4464;SDS011;2245;48.136;13.428;2022-08-27T03:25:55;22.47;;;11.93;;
4464;SDS011;2245;48.136;13.428;2022-08-27T03:28:25;22.93;;;12.50;;
4464;SDS011;2245;48.136;13.428;2022-08-27T03:30:54;17.27;;;12.47;;
4464;SDS011;2245;48.136;13.428;2022-08-27T03:33:24;18.77;;;12.40;;
4464;SDS011;2245;48.136;13.428;2022-08-27T03:35:51;18.80;;;13.10;;
4464;SDS011;2245;48.136;13.428;2022-08-27T03:38:18;20.93;;;13.17;;
4464;SDS011;2245;48.136;13.428;2022-08-27T03:40:45;18.00;;;12.23;;
4464;SDS011;2245;48.136;13.428;2022-08-27T03:43:14;20.93;;;12.73;;
4464;SDS011;2245;48.136;13.428;2022-08-27T03:45:42;31.17;;;13.10;;
4464;SDS011;2245;48.136;13.428;2022-08-27T03:48:10;18.60;;;13.47;;
4464;SDS011;2245;48.136;13.428;2022-08-27T03:50:37;19.33;;;13.93;;
4464;SDS011;2245;48.136;13.428;2022-08-27T03:53:05;19.00;;;13.80;;
4464;SDS011;2245;48.136;13.428;2022-08-27T03:55:32;18.30;;;12.67;;
4464;SDS011;2245;48.136;13.428;2022-08-27T03:57:58;22.67;;;12.80;;
4464;SDS011;2245;48.136;13.428;2022-08-27T04:00:27;17.80;;;13.47;;
4464;SDS011;2245;48.136;13.428;2022-08-27T04:02:54;20.53;;;13.50;;
4464;SDS011;2245;48.136;13.428;2022-08-27T04:05:21;20.93;;;14.77;;
4464;SDS011;2245;48.136;13.428;2022-08-27T04:07:48;26.53;;;15.87;;
4464;SDS011;2245;48.136;13.428;2022-08-27T04:10:15;25.17;;;15.60;;
4464;SDS011;2245;48.136;13.428;2022-08-27T04:12:43;26.40;;;15.43;;
4464;SDS011;2245;48.136;13.428;2022-08-27T04:15:10;21.17;;;16.23;;
4464;SDS011;2245;48.136;13.428;2022-08-27T04:17:39;20.13;;;14.77;;
4464;SDS011;2245;48.136;13.428;2022-08-27T04:20:07;20.20;;;14.37;;
4464;SDS011;2245;48.136;13.428;2022-08-27T04:22:35;30.50;;;16.43;;
4464;SDS011;2245;48.136;13.428;2022-08-27T04:25:02;31.40;;;18.17;;
4464;SDS011;2245;48.136;13.428;2022-08-27T04:27:29;31.50;;;19.17;;
4464;SDS011;2245;48.136;13.428;2022-08-27T04:29:58;33.13;;;18.80;;
4464;SDS011;2245;48.136;13.428;2022-08-27T04:32:25;28.23;;;17.23;;
4464;SDS011;2245;48.136;13.428;2022-08-27T04:34:54;32.53;;;19.13;;
4464;SDS011;2245;48.136;13.428;2022-08-27T04:37:22;25.07;;;16.73;;
4464;SDS011;2245;48.136;13.428;2022-08-27T04:39:49;26.30;;;16.93;;
4464;SDS011;2245;48.136;13.428;2022-08-27T04:42:16;23.43;;;14.80;;
4464;SDS011;2245;48.136;13.428;2022-08-27T04:44:44;29.13;;;15.37;;
4464;SDS011;2245;48.136;13.428;2022-08-27T04:47:12;21.87;;;14.50;;
4464;SDS011;2245;48.136;13.428;2022-08-27T04:49:39;21.20;;;14.80;;
4464;SDS011;2245;48.136;13.428;2022-08-27T04:52:07;16.10;;;12.00;;
4464;SDS011;2245;48.136;13.428;2022-08-27T04:54:35;21.73;;;13.77;;
4464;SDS011;2245;48.136;13.428;2022-08-27T04:57:02;20.60;;;13.20;;
4464;SDS011;2245;48.136;13.428;2022-08-27T04:59:30;15.23;;;11.53;;
4464;SDS011;2245;48.136;13.428;2022-08-27T05:01:59;20.07;;;11.87;;
4464;SDS011;2245;48.136;13.428;2022-08-27T05:04:26;16.77;;;12.10;;
4464;SDS011;2245;48.136;13.428;2022-08-27T05:06:54;19.63;;;12.03;;
4464;SDS011;2245;48.136;13.428;2022-08-27T05:09:22;20.60;;;12.87;;
4464;SDS011;2245;48.136;13.428;2022-08-27T05:11:49;20.87;;;12.90;;
4464;SDS011;2245;48.136;13.428;2022-08-27T05:14:18;24.80;;;13.50;;
4464;SDS011;2245;48.136;13.428;2022-08-27T05:16:46;26.73;;;14.80;;
4464;SDS011;2245;48.136;13.428;2022-08-27T05:19:13;19.90;;;12.67;;
4464;SDS011;2245;48.136;13.428;2022-08-27T05:21:42;27.10;;;14.60;;
4464;SDS011;2245;48.136;13.428;2022-08-27T05:24:10;29.30;;;14.27;;
4464;SDS011;2245;48.136;13.428;2022-08-27T05:26:38;30.27;;;14.90;;
4464;SDS011;2245;48.136;13.428;2022-08-27T05:29:05;32.60;;;14.67;;
4464;SDS011;2245;48.136;13.428;2022-08-27T05:31:32;22.50;;;14.00;;
4464;SDS011;2245;48.136;13.428;2022-08-27T05:33:59;22.27;;;13.40;;
4464;SDS011;2245;48.136;13.428;2022-08-27T05:36:27;23.23;;;14.23;;
4464;SDS011;2245;48.136;13.428;2022-08-27T05:38:56;22.27;;;14.30;;
4464;SDS011;2245;48.136;13.428;2022-08-27T05:41:24;28.47;;;17.30;;
4464;SDS011;2245;48.136;13.428;2022-08-27T05:43:55;25.87;;;14.70;;
4464;SDS011;2245;48.136;13.428;2022-08-27T05:46:23;31.50;;;16.70;;
4464;SDS011;2245;48.136;13.428;2022-08-27T05:48:51;22.80;;;14.57;;
4464;SDS011;2245;48.136;13.428;2022-08-27T05:51:21;22.03;;;14.53;;
4464;SDS011;2245;48.136;13.428;2022-08-27T05:53:48;20.93;;;12.90;;
4464;SDS011;2245;48.136;13.428;2022-08-27T05:56:16;25.60;;;13.90;;
4464;SDS011;2245;48.136;13.428;2022-08-27T05:58:45;24.17;;;14.23;;
4464;SDS011;2245;48.136;13.428;2022-08-27T06:01:32;23.50;;;14.63;;
4464;SDS011;2245;48.136;13.428;2022-08-27T06:04:00;29.00;;;13.80;;
4464;SDS011;2245;48.136;13.428;2022-08-27T06:06:27;25.40;;;14.97;;
4464;SDS011;2245;48.136;13.428;2022-08-27T06:08:54;21.50;;;13.90;;
4464;SDS011;2245;48.136;13.428;2022-08-27T06:11:21;18.00;;;12.13;;
4464;SDS011;2245;48.136;13.428;2022-08-27T06:13:48;20.80;;;14.00;;
4464;SDS011;2245;48.136;13.428;2022-08-27T06:16:15;25.00;;;13.70;;
4464;SDS011;2245;48.136;13.428;2022-08-27T06:18:45;23.43;;;13.67;;
4464;SDS011;2245;48.136;13.428;2022-08-27T06:21:13;16.97;;;11.17;;
4464;SDS011;2245;48.136;13.428;2022-08-27T06:23:40;17.13;;;11.73;;
4464;SDS011;2245;48.136;13.428;2022-08-27T06:26:08;18.43;;;12.20;;
4464;SDS011;2245;48.136;13.428;2022-08-27T06:28:37;15.50;;;11.07;;
4464;SDS011;2245;48.136;13.428;2022-08-27T06:31:05;13.00;;;10.37;;
4464;SDS011;2245;48.136;13.428;2022-08-27T06:33:33;10.83;;;8.63;;
4464;SDS011;2245;48.136;13.428;2022-08-27T06:36:03;13.90;;;9.50;;
4464;SDS011;2245;48.136;13.428;2022-08-27T06:38:31;15.53;;;10.10;;
4464;SDS011;2245;48.136;13.428;2022-08-27T06:40:58;14.57;;;10.20;;
4464;SDS011;2245;48.136;13.428;2022-08-27T06:43:25;15.60;;;9.53;;
4464;SDS011;2245;48.136;13.428;2022-08-27T06:45:52;16.77;;;10.90;;
4464;SDS011;2245;48.136;13.428;2022-08-27T06:48:19;18.40;;;10.63;;
4464;SDS011;2245;48.136;13.428;2022-08-27T06:50:46;23.63;;;14.53;;
4464;SDS011;2245;48.136;13.428;2022-08-27T06:53:14;25.03;;;13.37;;
4464;SDS011;2245;48.136;13.428;2022-08-27T06:55:41;28.13;;;17.00;;
4464;SDS011;2245;48.136;13.428;2022-08-27T06:58:09;24.10;;;16.40;;
4464;SDS011;2245;48.136;13.428;2022-08-27T07:00:36;33.03;;;19.80;;
4464;SDS011;2245;48.136;13.428;2022-08-27T07:03:03;31.00;;;20.13;;
4464;SDS011;2245;48.136;13.428;2022-08-27T07:05:30;32.07;;;21.50;;
4464;SDS011;2245;48.136;13.428;2022-08-27T07:07:57;39.47;;;21.97;;
4464;SDS011;2245;48.136;13.428;2022-08-27T07:10:25;35.67;;;20.13;;
4464;SDS011;2245;48.136;13.428;2022-08-27T07:12:53;29.40;;;20.57;;
4464;SDS011;2245;48.136;13.428;2022-08-27T07:15:20;32.13;;;21.77;;
4464;SDS011;2245;48.136;13.428;2022-08-27T07:17:46;34.40;;;20.00;;
4464;SDS011;2245;48.136;13.428;2022-08-27T07:20:14;28.00;;;17.70;;
4464;SDS011;2245;48.136;13.428;2022-08-27T07:22:41;30.70;;;18.40;;
4464;SDS011;2245;48.136;13.428;2022-08-27T07:25:10;28.20;;;19.23;;
4464;SDS011;2245;48.136;13.428;2022-08-27T07:27:40;28.23;;;17.43;;
4464;SDS011;2245;48.136;13.428;2022-08-27T07:30:09;26.50;;;15.70;;
4464;SDS011;2245;48.136;13.428;2022-08-27T07:32:37;23.93;;;14.70;;
4464;SDS011;2245;48.136;13.428;2022-08-27T07:35:04;19.67;;;13.77;;
4464;SDS011;2245;48.136;13.428;2022-08-27T07:37:33;25.63;;;14.23;;
4464;SDS011;2245;48.136;13.428;2022-08-27T07:40:03;17.90;;;12.90;;
4464;SDS011;2245;48.136;13.428;2022-08-27T07:42:30;22.43;;;15.83;;
4464;SDS011;2245;48.136;13.428;2022-08-27T07:45:16;17.83;;;12.83;;
4464;SDS011;2245;48.136;13.428;2022-08-27T07:47:43;17.47;;;12.33;;
4464;SDS011;2245;48.136;13.428;2022-08-27T07:50:10;15.17;;;11.70;;
4464;SDS011;2245;48.136;13.428;2022-08-27T07:52:38;20.70;;;11.70;;
4464;SDS011;2245;48.136;13.428;2022-08-27T07:55:05;15.00;;;11.97;;
4464;SDS011;2245;48.136;13.428;2022-08-27T07:57:33;15.60;;;11.27;;
4464;SDS011;2245;48.136;13.428;2022-08-27T08:00:00;16.83;;;10.97;;
4464;SDS011;2245;48.136;13.428;2022-08-27T08:02:28;13.10;;;10.03;;
4464;SDS011;2245;48.136;13.428;2022-08-27T08:04:55;15.77;;;10.13;;
4464;SDS011;2245;48.136;13.428;2022-08-27T08:07:22;14.20;;;9.83;;
4464;SDS011;2245;48.136;13.428;2022-08-27T08:09:49;13.07;;;8.47;;
4464;SDS011;2245;48.136;13.428;2022-08-27T08:12:16;17.33;;;9.80;;
4464;SDS011;2245;48.136;13.428;2022-08-27T08:14:43;16.40;;;11.30;;
4464;SDS011;2245;48.136;13.428;2022-08-27T08:17:11;15.93;;;8.97;;
4464;SDS011;2245;48.136;13.428;2022-08-27T08:19:39;17.80;;;8.90;;
4464;SDS011;2245;48.136;13.428;2022-08-27T08:22:06;11.10;;;8.20;;
4464;SDS011;2245;48.136;13.428;2022-08-27T08:24:33;14.67;;;8.97;;
4464;SDS011;2245;48.136;13.428;2022-08-27T08:27:01;12.07;;;8.97;;
4464;SDS011;2245;48.136;13.428;2022-08-27T08:29:28;11.00;;;7.87;;
4464;SDS011;2245;48.136;13.428;2022-08-27T08:31:54;12.80;;;8.33;;
4464;SDS011;2245;48.136;13.428;2022-08-27T08:34:21;10.90;;;9.27;;
4464;SDS011;2245;48.136;13.428;2022-08-27T08:36:49;14.10;;;9.73;;
4464;SDS011;2245;48.136;13.428;2022-08-27T08:39:17;13.20;;;10.60;;
4464;SDS011;2245;48.136;13.428;2022-08-27T08:41:47;14.83;;;9.20;;
4464;SDS011;2245;48.136;13.428;2022-08-27T08:44:19;19.47;;;10.13;;
4464;SDS011;2245;48.136;13.428;2022-08-27T08:46:57;14.00;;;8.97;;
4464;SDS011;2245;48.136;13.428;2022-08-27T08:49:38;11.90;;;8.37;;
4464;SDS011;2245;48.136;13.428;2022-08-27T08:52:15;10.73;;;6.80;;
4464;SDS011;2245;48.136;13.428;2022-08-27T08:54:47;14.23;;;7.67;;
4464;SDS011;2245;48.136;13.428;2022-08-27T08:57:17;13.80;;;6.70;;
4464;SDS011;2245;48.136;13.428;2022-08-27T08:59:51;14.33;;;7.80;;
4464;SDS011;2245;48.136;13.428;2022-08-27T09:02:21;14.50;;;8.30;;
4464;SDS011;2245;48.136;13.428;2022-08-27T09:04:47;14.00;;;8.13;;
4464;SDS011;2245;48.136;13.428;2022-08-27T09:07:17;11.40;;;9.20;;
4464;SDS011;2245;48.136;13.428;2022-08-27T09:09:47;11.50;;;8.43;;
4464;SDS011;2245;48.136;13.428;2022-08-27T09:12:19;15.13;;;9.43;;
4464;SDS011;2245;48.136;13.428;2022-08-27T09:14:49;12.80;;;9.47;;
4464;SDS011;2245;48.136;13.428;2022-08-27T09:17:17;14.97;;;9.57;;
4464;SDS011;2245;48.136;13.428;2022-08-27T09:19:44;13.07;;;8.17;;
4464;SDS011;2245;48.136;13.428;2022-08-27T09:22:19;15.40;;;9.90;;
4464;SDS011;2245;48.136;13.428;2022-08-27T09:24:50;12.10;;;9.83;;
4464;SDS011;2245;48.136;13.428;2022-08-27T09:27:21;14.30;;;9.53;;
4464;SDS011;2245;48.136;13.428;2022-08-27T09:29:50;12.27;;;8.87;;
4464;SDS011;2245;48.136;13.428;2022-08-27T09:32:21;10.50;;;8.60;;
4464;SDS011;2245;48.136;13.428;2022-08-27T09:34:48;11.53;;;8.43;;
4464;SDS011;2245;48.136;13.428;2022-08-27T09:37:16;8.90;;;7.47;;
4464;SDS011;2245;48.136;13.428;2022-08-27T09:39:47;10.23;;;9.17;;
4464;SDS011;2245;48.136;13.428;2022-08-27T09:42:26;15.63;;;8.20;;
4464;SDS011;2245;48.136;13.428;2022-08-27T09:44:55;10.53;;;7.93;;
4464;SDS011;2245;48.136;13.428;2022-08-27T09:47:22;11.20;;;7.90;;
4464;SDS011;2245;48.136;13.428;2022-08-27T09:49:59;13.40;;;8.57;;
4464;SDS011;2245;48.136;13.428;2022-08-27T09:52:28;12.63;;;9.63;;
4464;SDS011;2245;48.136;13.428;2022-08-27T09:54:58;13.87;;;8.67;;
4464;SDS011;2245;48.136;13.428;2022-08-27T09:57:28;13.13;;;10.43;;
4464;SDS011;2245;48.136;13.428;2022-08-27T09:59:58;11.40;;;8.30;;
4464;SDS011;2245;48.136;13.428;2022-08-27T10:02:25;10.20;;;8.87;;
4464;SDS011;2245;48.136;13.428;2022-08-27T10:04:53;17.13;;;10.67;;
4464;SDS011;2245;48.136;13.428;2022-08-27T10:07:29;15.60;;;9.63;;
4464;SDS011;2245;48.136;13.428;2022-08-27T10:10:02;15.73;;;10.43;;
4464;SDS011;2245;48.136;13.428;2022-08-27T10:12:34;19.20;;;10.63;;
4464;SDS011;2245;48.136;13.428;2022-08-27T10:15:10;15.10;;;10.17;;
4464;SDS011;2245;48.136;13.428;2022-08-27T10:17:41;19.00;;;9.23;;
4464;SDS011;2245;48.136;13.428;2022-08-27T10:20:13;13.07;;;9.23;;
4464;SDS011;2245;48.136;13.428;2022-08-27T10:22:45;15.57;;;10.63;;
4464;SDS011;2245;48.136;13.428;2022-08-27T10:25:24;18.93;;;10.30;;
4464;SDS011;2245;48.136;13.428;2022-08-27T10:27:59;14.83;;;10.20;;
4464;SDS011;2245;48.136;13.428;2022-08-27T10:30:33;14.00;;;9.87;;
4464;SDS011;2245;48.136;13.428;2022-08-27T10:33:10;12.23;;;10.07;;
4464;SDS011;2245;48.136;13.428;2022-08-27T10:35:40;14.63;;;10.03;;
4464;SDS011;2245;48.136;13.428;2022-08-27T10:38:13;15.53;;;11.40;;
4464;SDS011;2245;48.136;13.428;2022-08-27T10:40:44;14.40;;;10.10;;
4464;SDS011;2245;48.136;13.428;2022-08-27T10:43:18;13.13;;;9.27;;
4464;SDS011;2245;48.136;13.428;2022-08-27T10:45:56;12.13;;;9.27;;
4464;SDS011;2245;48.136;13.428;2022-08-27T10:48:33;16.30;;;12.67;;
4464;SDS011;2245;48.136;13.428;2022-08-27T10:51:02;13.87;;;9.50;;
4464;SDS011;2245;48.136;13.428;2022-08-27T10:53:34;12.10;;;9.23;;
4464;SDS011;2245;48.136;13.428;2022-08-27T10:56:09;13.30;;;10.17;;
4464;SDS011;2245;48.136;13.428;2022-08-27T10:58:42;16.33;;;10.47;;
4464;SDS011;2245;48.136;13.428;2022-08-27T11:01:19;14.30;;;12.00;;
4464;SDS011;2245;48.136;13.428;2022-08-27T11:03:49;16.07;;;10.97;;
4464;SDS011;2245;48.136;13.428;2022-08-27T11:06:20;16.20;;;11.60;;
4464;SDS011;2245;48.136;13.428;2022-08-27T11:08:49;16.90;;;14.40;;
4464;SDS011;2245;48.136;13.428;2022-08-27T11:11:23;15.60;;;11.80;;
4464;SDS011;2245;48.136;13.428;2022-08-27T11:13:53;18.27;;;14.37;;
4464;SDS011;2245;48.136;13.428;2022-08-27T11:16:23;14.03;;;12.57;;
4464;SDS011;2245;48.136;13.428;2022-08-27T11:18:52;20.37;;;11.80;;
4464;SDS011;2245;48.136;13.428;2022-08-27T11:21:23;12.30;;;9.77;;
4464;SDS011;2245;48.136;13.428;2022-08-27T11:23:57;18.23;;;10.53;;
4464;SDS011;2245;48.136;13.428;2022-08-27T11:26:28;14.33;;;12.27;;
4464;SDS011;2245;48.136;13.428;2022-08-27T11:28:57;17.67;;;11.13;;
4464;SDS011;2245;48.136;13.428;2022-08-27T11:31:27;20.17;;;14.90;;
4464;SDS011;2245;48.136;13.428;2022-08-27T11:34:00;17.63;;;14.63;;
4464;SDS011;2245;48.136;13.428;2022-08-27T11:36:33;19.37;;;14.43;;
4464;SDS011;2245;48.136;13.428;2022-08-27T11:39:27;18.97;;;15.83;;
4464;SDS011;2245;48.136;13.428;2022-08-27T11:42:08;22.50;;;14.63;;
4464;SDS011;2245;48.136;13.428;2022-08-27T11:44:39;23.87;;;15.07;;
4464;SDS011;2245;48.136;13.428;2022-08-27T11:47:09;21.77;;;16.23;;
4464;SDS011;2245;48.136;13.428;2022-08-27T11:49:41;30.60;;;14.60;;
4464;SDS011;2245;48.136;13.428;2022-08-27T11:52:10;16.17;;;11.80;;
4464;SDS011;2245;48.136;13.428;2022-08-27T11:54:45;16.97;;;13.33;;
4464;SDS011;2245;48.136;13.428;2022-08-27T11:57:15;17.57;;;14.73;;
4464;SDS011;2245;48.136;13.428;2022-08-27T11:59:51;14.27;;;12.77;;
4464;SDS011;2245;48.136;13.428;2022-08-27T12:02:20;13.03;;;11.53;;
4464;SDS011;2245;48.136;13.428;2022-08-27T12:04:50;19.03;;;15.37;;
4464;SDS011;2245;48.136;13.428;2022-08-27T12:07:26;18.20;;;12.97;;
4464;SDS011;2245;48.136;13.428;2022-08-27T12:10:09;15.30;;;11.43;;
4464;SDS011;2245;48.136;13.428;2022-08-27T12:12:47;22.43;;;17.50;;
4464;SDS011;2245;48.136;13.428;2022-08-27T12:15:24;28.10;;;19.50;;
4464;SDS011;2245;48.136;13.428;2022-08-27T12:17:54;22.83;;;15.30;;
4464;SDS011;2245;48.136;13.428;2022-08-27T12:20:29;24.83;;;17.80;;
4464;SDS011;2245;48.136;13.428;2022-08-27T12:23:05;23.13;;;17.13;;
4464;SDS011;2245;48.136;13.428;2022-08-27T12:25:56;21.57;;;16.37;;
4464;SDS011;2245;48.136;13.428;2022-08-27T12:28:26;19.23;;;13.67;;
4464;SDS011;2245;48.136;13.428;2022-08-27T12:30:53;16.17;;;12.10;;
4464;SDS011;2245;48.136;13.428;2022-08-27T12:33:22;20.27;;;13.50;;
4464;SDS011;2245;48.136;13.428;2022-08-27T12:35:53;20.83;;;15.60;;
4464;SDS011;2245;48.136;13.428;2022-08-27T12:38:25;19.97;;;13.53;;
4464;SDS011;2245;48.136;13.428;2022-08-27T12:41:02;16.27;;;13.53;;
4464;SDS011;2245;48.136;13.428;2022-08-27T12:43:35;19.03;;;15.80;;
4464;SDS011;2245;48.136;13.428;2022-08-27T12:46:07;21.10;;;14.90;;
4464;SDS011;2245;48.136;13.428;2022-08-27T12:48:41;21.77;;;14.97;;
4464;SDS011;2245;48.136;13.428;2022-08-27T12:51:12;20.07;;;16.00;;
4464;SDS011;2245;48.136;13.428;2022-08-27T12:53:41;21.20;;;15.60;;
4464;SDS011;2245;48.136;13.428;2022-08-27T12:56:21;23.10;;;14.67;;
4464;SDS011;2245;48.136;13.428;2022-08-27T12:59:00;20.67;;;14.73;;
4464;SDS011;2245;48.136;13.428;2022-08-27T13:01:37;22.03;;;15.13;;
4464;SDS011;2245;48.136;13.428;2022-08-27T13:04:15;21.50;;;16.73;;
4464;SDS011;2245;48.136;13.428;2022-08-27T13:06:45;24.00;;;18.10;;
4464;SDS011;2245;48.136;13.428;2022-08-27T13:09:12;21.80;;;17.13;;
4464;SDS011;2245;48.136;13.428;2022-08-27T13:11:43;20.60;;;15.93;;
4464;SDS011;2245;48.136;13.428;2022-08-27T13:14:13;24.23;;;17.63;;
4464;SDS011;2245;48.136;13.428;2022-08-27T13:16:43;20.27;;;15.90;;
4464;SDS011;2245;48.136;13.428;2022-08-27T13:19:20;22.30;;;15.50;;
4464;SDS011;2245;48.136;13.428;2022-08-27T13:21:50;24.97;;;16.40;;
4464;SDS011;2245;48.136;13.428;2022-08-27T13:24:20;25.27;;;17.90;;
4464;SDS011;2245;48.136;13.428;2022-08-27T13:26:53;18.97;;;14.57;;
4464;SDS011;2245;48.136;13.428;2022-08-27T13:29:23;18.37;;;15.50;;
4464;SDS011;2245;48.136;13.428;2022-08-27T13:31:50;18.70;;;15.30;;
4464;SDS011;2245;48.136;13.428;2022-08-27T13:34:18;18.57;;;14.87;;
4464;SDS011;2245;48.136;13.428;2022-08-27T13:36:51;20.73;;;15.07;;
4464;SDS011;2245;48.136;13.428;2022-08-27T13:39:21;24.00;;;15.57;;
4464;SDS011;2245;48.136;13.428;2022-08-27T13:41:48;23.20;;;14.60;;
4464;SDS011;2245;48.136;13.428;2022-08-27T13:44:17;20.73;;;14.07;;
4464;SDS011;2245;48.136;13.428;2022-08-27T13:46:48;18.20;;;13.40;;
4464;SDS011;2245;48.136;13.428;2022-08-27T13:49:17;18.00;;;14.70;;
4464;SDS011;2245;48.136;13.428;2022-08-27T13:51:47;20.03;;;15.07;;
4464;SDS011;2245;48.136;13.428;2022-08-27T13:54:16;17.30;;;14.10;;
4464;SDS011;2245;48.136;13.428;2022-08-27T13:56:57;22.80;;;14.70;;
4464;SDS011;2245;48.136;13.428;2022-08-27T13:59:33;19.80;;;14.53;;
4464;SDS011;2245;48.136;13.428;2022-08-27T14:02:03;19.73;;;13.67;;
4464;SDS011;2245;48.136;13.428;2022-08-27T14:04:45;22.97;;;15.10;;
4464;SDS011;2245;48.136;13.428;2022-08-27T14:07:14;18.03;;;13.60;;
4464;SDS011;2245;48.136;13.428;2022-08-27T14:09:56;15.80;;;12.73;;
4464;SDS011;2245;48.136;13.428;2022-08-27T14:12:26;17.20;;;14.57;;
4464;SDS011;2245;48.136;13.428;2022-08-27T14:14:55;25.87;;;14.60;;
4464;SDS011;2245;48.136;13.428;2022-08-27T14:17:25;19.23;;;14.80;;
4464;SDS011;2245;48.136;13.428;2022-08-27T14:19:58;18.87;;;14.23;;
4464;SDS011;2245;48.136;13.428;2022-08-27T14:22:25;16.40;;;13.00;;
4464;SDS011;2245;48.136;13.428;2022-08-27T14:24:52;16.40;;;12.70;;
4464;SDS011;2245;48.136;13.428;2022-08-27T14:27:19;16.50;;;13.60;;
4464;SDS011;2245;48.136;13.428;2022-08-27T14:29:46;21.93;;;13.43;;
4464;SDS011;2245;48.136;13.428;2022-08-27T14:32:14;22.27;;;12.00;;
4464;SDS011;2245;48.136;13.428;2022-08-27T14:34:42;17.80;;;11.53;;
4464;SDS011;2245;48.136;13.428;2022-08-27T14:37:10;19.77;;;11.80;;
4464;SDS011;2245;48.136;13.428;2022-08-27T14:39:36;15.57;;;11.27;;
4464;SDS011;2245;48.136;13.428;2022-08-27T14:42:04;13.70;;;10.30;;
4464;SDS011;2245;48.136;13.428;2022-08-27T14:44:31;13.70;;;10.00;;
4464;SDS011;2245;48.136;13.428;2022-08-27T14:46:58;13.23;;;10.20;;
4464;SDS011;2245;48.136;13.428;2022-08-27T14:49:25;10.70;;;9.70;;